sensor_id;sensor_type;location;lat;lon;timestamp;P1;durP1;ratioP1;P2;durP2;ratioP2
8526;SDS011;4301;48.362;8.478;2022-09-16T00:02:00;10.60;;;9.60;;
8526;SDS011;4301;48.362;8.478;2022-09-16T00:04:27;10.27;;;8.87;;
8526;SDS011;4301;48.362;8.478;2022-09-16T00:06:54;10.30;;;9.27;;
8526;SDS011;4301;48.362;8.478;2022-09-16T00:09:21;12.80;;;9.50;;
8526;SDS011;4301;48.362;8.478;2022-09-16T00:11:50;12.13;;;9.70;;
8526;SDS011;4301;48.362;8.478;2022-09-16T00:14:17;11.93;;;10.03;;
8526;SDS011;4301;48.362;8.478;2022-09-16T00:16:44;11.20;;;10.07;;
8526;SDS011;4301;48.362;8.478;2022-09-16T00:19:11;12.03;;;9.97;;
8526;SDS011;4301;48.362;8.478;2022-09-16T00:21:38;11.57;;;10.40;;
8526;SDS011;4301;48.362;8.478;2022-09-16T00:24:05;12.80;;;10.17;;
8526;SDS011;4301;48.362;8.478;2022-09-16T00:26:32;10.23;;;9.23;;
8526;SDS011;4301;48.362;8.478;2022-09-16T00:29:01;12.10;;;10.27;;
8526;SDS011;4301;48.362;8.478;2022-09-16T00:31:28;11.30;;;9.43;;
8526;SDS011;4301;48.362;8.478;2022-09-16T00:33:55;10.43;;;9.43;;
8526;SDS011;4301;48.362;8.478;2022-09-16T00:36:22;10.13;;;9.10;;
8526;SDS011;4301;48.362;8.478;2022-09-16T00:38:50;10.43;;;9.43;;
8526;SDS011;4301;48.362;8.478;2022-09-16T00:41:20;12.03;;;10.13;;
8526;SDS011;4301;48.362;8.478;2022-09-16T00:43:50;16.20;;;10.63;;
8526;SDS011;4301;48.362;8.478;2022-09-16T00:46:22;11.23;;;10.13;;
8526;SDS011;4301;48.362;8.478;2022-09-16T00:48:55;10.83;;;9.77;;
8526;SDS011;4301;48.362;8.478;2022-09-16T00:51:23;11.87;;;10.10;;
8526;SDS011;4301;48.362;8.478;2022-09-16T00:53:52;11.70;;;9.33;;
8526;SDS011;4301;48.362;8.478;2022-09-16T00:56:26;12.43;;;9.97;;
8526;SDS011;4301;48.362;8.478;2022-09-16T00:58:58;12.20;;;10.17;;
8526;SDS011;4301;48.362;8.478;2022-09-16T01:01:33;10.43;;;9.37;;
8526;SDS011;4301;48.362;8.478;2022-09-16T01:04:02;12.53;;;10.70;;
8526;SDS011;4301;48.362;8.478;2022-09-16T01:06:31;11.10;;;10.00;;
8526;SDS011;4301;48.362;8.478;2022-09-16T01:09:03;16.73;;;14.73;;
8526;SDS011;4301;48.362;8.478;2022-09-16T01:11:31;14.13;;;10.87;;
8526;SDS011;4301;48.362;8.478;2022-09-16T01:13:58;12.00;;;10.87;;
8526;SDS011;4301;48.362;8.478;2022-09-16T01:16:44;11.60;;;10.40;;
8526;SDS011;4301;48.362;8.478;2022-09-16T01:19:19;13.30;;;10.07;;
8526;SDS011;4301;48.362;8.478;2022-09-16T01:22:08;11.20;;;10.00;;
8526;SDS011;4301;48.362;8.478;2022-09-16T01:24:50;10.60;;;9.53;;
8526;SDS011;4301;48.362;8.478;2022-09-16T01:27:30;10.97;;;9.83;;
8526;SDS011;4301;48.362;8.478;2022-09-16T01:30:17;10.50;;;8.80;;
8526;SDS011;4301;48.362;8.478;2022-09-16T01:33:10;10.43;;;9.33;;
8526;SDS011;4301;48.362;8.478;2022-09-16T01:35:58;9.73;;;8.73;;
8526;SDS011;4301;48.362;8.478;2022-09-16T01:38:46;9.07;;;8.10;;
8526;SDS011;4301;48.362;8.478;2022-09-16T01:41:24;9.27;;;8.37;;
8526;SDS011;4301;48.362;8.478;2022-09-16T01:43:59;9.40;;;8.50;;
8526;SDS011;4301;48.362;8.478;2022-09-16T01:46:33;10.57;;;9.20;;
8526;SDS011;4301;48.362;8.478;2022-09-16T01:49:12;10.70;;;9.50;;
8526;SDS011;4301;48.362;8.478;2022-09-16T01:51:45;9.70;;;8.77;;
8526;SDS011;4301;48.362;8.478;2022-09-16T01:54:20;10.07;;;8.93;;
8526;SDS011;4301;48.362;8.478;2022-09-16T01:56:52;11.80;;;9.80;;
8526;SDS011;4301;48.362;8.478;2022-09-16T01:59:27;23.07;;;12.27;;
8526;SDS011;4301;48.362;8.478;2022-09-16T02:02:04;20.67;;;12.50;;
8526;SDS011;4301;48.362;8.478;2022-09-16T02:04:39;35.47;;;13.13;;
8526;SDS011;4301;48.362;8.478;2022-09-16T02:07:10;48.00;;;13.03;;
8526;SDS011;4301;48.362;8.478;2022-09-16T02:09:41;40.20;;;13.47;;
8526;SDS011;4301;48.362;8.478;2022-09-16T02:12:14;18.60;;;11.93;;
8526;SDS011;4301;48.362;8.478;2022-09-16T02:14:44;16.43;;;12.33;;
8526;SDS011;4301;48.362;8.478;2022-09-16T02:17:14;16.43;;;12.40;;
8526;SDS011;4301;48.362;8.478;2022-09-16T02:19:48;186.87;;;15.37;;
8526;SDS011;4301;48.362;8.478;2022-09-16T02:22:22;80.60;;;13.23;;
8526;SDS011;4301;48.362;8.478;2022-09-16T02:24:54;41.03;;;13.37;;
8526;SDS011;4301;48.362;8.478;2022-09-16T02:27:25;21.67;;;13.07;;
8526;SDS011;4301;48.362;8.478;2022-09-16T02:29:55;14.27;;;12.50;;
8526;SDS011;4301;48.362;8.478;2022-09-16T02:32:27;20.17;;;12.27;;
8526;SDS011;4301;48.362;8.478;2022-09-16T02:34:59;15.40;;;12.47;;
8526;SDS011;4301;48.362;8.478;2022-09-16T02:37:29;18.73;;;11.77;;
8526;SDS011;4301;48.362;8.478;2022-09-16T02:40:00;15.43;;;11.40;;
8526;SDS011;4301;48.362;8.478;2022-09-16T02:42:30;14.93;;;11.40;;
8526;SDS011;4301;48.362;8.478;2022-09-16T02:44:57;12.10;;;10.77;;
8526;SDS011;4301;48.362;8.478;2022-09-16T02:47:26;13.03;;;11.00;;
8526;SDS011;4301;48.362;8.478;2022-09-16T02:50:00;12.30;;;10.27;;
8526;SDS011;4301;48.362;8.478;2022-09-16T02:52:35;11.33;;;9.60;;
8526;SDS011;4301;48.362;8.478;2022-09-16T02:55:08;10.80;;;9.67;;
8526;SDS011;4301;48.362;8.478;2022-09-16T02:57:40;10.00;;;9.10;;
8526;SDS011;4301;48.362;8.478;2022-09-16T03:00:08;12.27;;;10.53;;
8526;SDS011;4301;48.362;8.478;2022-09-16T03:02:36;10.67;;;9.53;;
8526;SDS011;4301;48.362;8.478;2022-09-16T03:05:05;15.97;;;12.70;;
8526;SDS011;4301;48.362;8.478;2022-09-16T03:07:33;16.97;;;13.70;;
8526;SDS011;4301;48.362;8.478;2022-09-16T03:10:01;17.00;;;15.00;;
8526;SDS011;4301;48.362;8.478;2022-09-16T03:12:46;15.83;;;12.50;;
8526;SDS011;4301;48.362;8.478;2022-09-16T03:15:23;14.63;;;12.23;;
8526;SDS011;4301;48.362;8.478;2022-09-16T03:21:07;12.50;;;11.20;;
8526;SDS011;4301;48.362;8.478;2022-09-16T03:23:41;15.27;;;12.20;;
8526;SDS011;4301;48.362;8.478;2022-09-16T03:26:17;14.63;;;11.63;;
8526;SDS011;4301;48.362;8.478;2022-09-16T03:28:53;13.07;;;11.73;;
8526;SDS011;4301;48.362;8.478;2022-09-16T03:31:29;13.17;;;11.60;;
8526;SDS011;4301;48.362;8.478;2022-09-16T03:34:00;13.50;;;11.80;;
8526;SDS011;4301;48.362;8.478;2022-09-16T03:36:34;15.47;;;11.97;;
8526;SDS011;4301;48.362;8.478;2022-09-16T03:39:06;12.93;;;11.63;;
8526;SDS011;4301;48.362;8.478;2022-09-16T03:41:36;11.17;;;10.07;;
8526;SDS011;4301;48.362;8.478;2022-09-16T03:44:04;12.00;;;10.80;;
8526;SDS011;4301;48.362;8.478;2022-09-16T03:46:31;14.30;;;11.40;;
8526;SDS011;4301;48.362;8.478;2022-09-16T03:48:58;14.20;;;10.97;;
8526;SDS011;4301;48.362;8.478;2022-09-16T03:51:26;13.57;;;10.77;;
8526;SDS011;4301;48.362;8.478;2022-09-16T03:53:54;10.43;;;9.23;;
8526;SDS011;4301;48.362;8.478;2022-09-16T03:56:22;10.73;;;9.00;;
8526;SDS011;4301;48.362;8.478;2022-09-16T03:58:50;11.60;;;9.60;;
8526;SDS011;4301;48.362;8.478;2022-09-16T04:01:17;12.13;;;9.50;;
8526;SDS011;4301;48.362;8.478;2022-09-16T04:03:45;12.90;;;10.20;;
8526;SDS011;4301;48.362;8.478;2022-09-16T04:06:12;11.47;;;10.30;;
8526;SDS011;4301;48.362;8.478;2022-09-16T04:08:40;14.50;;;9.50;;
8526;SDS011;4301;48.362;8.478;2022-09-16T04:11:09;12.93;;;10.23;;
8526;SDS011;4301;48.362;8.478;2022-09-16T04:13:37;12.07;;;10.00;;
8526;SDS011;4301;48.362;8.478;2022-09-16T04:16:04;11.83;;;10.73;;
8526;SDS011;4301;48.362;8.478;2022-09-16T04:18:31;13.07;;;9.97;;
8526;SDS011;4301;48.362;8.478;2022-09-16T04:21:00;11.87;;;10.40;;
8526;SDS011;4301;48.362;8.478;2022-09-16T04:23:29;11.97;;;10.77;;
8526;SDS011;4301;48.362;8.478;2022-09-16T04:25:56;12.27;;;10.97;;
8526;SDS011;4301;48.362;8.478;2022-09-16T04:28:26;12.10;;;10.63;;
8526;SDS011;4301;48.362;8.478;2022-09-16T04:30:57;17.40;;;11.57;;
8526;SDS011;4301;48.362;8.478;2022-09-16T04:33:26;12.23;;;11.03;;
8526;SDS011;4301;48.362;8.478;2022-09-16T04:36:00;14.40;;;11.20;;
8526;SDS011;4301;48.362;8.478;2022-09-16T04:38:29;13.33;;;11.00;;
8526;SDS011;4301;48.362;8.478;2022-09-16T04:40:59;11.80;;;10.60;;
8526;SDS011;4301;48.362;8.478;2022-09-16T04:43:29;12.70;;;11.33;;
8526;SDS011;4301;48.362;8.478;2022-09-16T04:45:56;11.30;;;10.20;;
8526;SDS011;4301;48.362;8.478;2022-09-16T04:48:23;12.37;;;10.70;;
8526;SDS011;4301;48.362;8.478;2022-09-16T04:50:51;11.57;;;10.17;;
8526;SDS011;4301;48.362;8.478;2022-09-16T04:53:18;12.50;;;10.30;;
8526;SDS011;4301;48.362;8.478;2022-09-16T04:55:46;11.27;;;10.13;;
8526;SDS011;4301;48.362;8.478;2022-09-16T04:58:13;11.13;;;9.80;;
8526;SDS011;4301;48.362;8.478;2022-09-16T05:00:42;12.30;;;10.93;;
8526;SDS011;4301;48.362;8.478;2022-09-16T05:03:09;11.47;;;10.37;;
8526;SDS011;4301;48.362;8.478;2022-09-16T05:05:36;10.93;;;9.93;;
8526;SDS011;4301;48.362;8.478;2022-09-16T05:08:03;11.63;;;10.50;;
8526;SDS011;4301;48.362;8.478;2022-09-16T05:10:30;11.93;;;10.20;;
8526;SDS011;4301;48.362;8.478;2022-09-16T05:12:58;14.43;;;9.37;;
8526;SDS011;4301;48.362;8.478;2022-09-16T05:15:25;10.13;;;9.17;;
8526;SDS011;4301;48.362;8.478;2022-09-16T05:17:53;10.47;;;9.40;;
8526;SDS011;4301;48.362;8.478;2022-09-16T05:20:20;12.13;;;9.40;;
8526;SDS011;4301;48.362;8.478;2022-09-16T05:22:48;10.63;;;8.83;;
8526;SDS011;4301;48.362;8.478;2022-09-16T05:25:16;12.33;;;8.80;;
8526;SDS011;4301;48.362;8.478;2022-09-16T05:27:43;11.30;;;8.87;;
8526;SDS011;4301;48.362;8.478;2022-09-16T05:30:11;9.53;;;8.53;;
8526;SDS011;4301;48.362;8.478;2022-09-16T05:32:40;10.02;;;9.10;;
8526;SDS011;4301;48.362;8.478;2022-09-16T05:35:08;9.77;;;8.77;;
8526;SDS011;4301;48.362;8.478;2022-09-16T05:37:35;9.17;;;8.27;;
8526;SDS011;4301;48.362;8.478;2022-09-16T05:40:03;10.20;;;9.10;;
8526;SDS011;4301;48.362;8.478;2022-09-16T05:42:31;10.83;;;8.57;;
8526;SDS011;4301;48.362;8.478;2022-09-16T05:44:58;9.90;;;9.00;;
8526;SDS011;4301;48.362;8.478;2022-09-16T05:47:25;9.60;;;8.70;;
8526;SDS011;4301;48.362;8.478;2022-09-16T05:49:52;9.90;;;8.90;;
8526;SDS011;4301;48.362;8.478;2022-09-16T05:52:21;10.83;;;9.53;;
8526;SDS011;4301;48.362;8.478;2022-09-16T05:54:49;12.33;;;9.00;;
8526;SDS011;4301;48.362;8.478;2022-09-16T05:57:16;12.30;;;9.80;;
8526;SDS011;4301;48.362;8.478;2022-09-16T05:59:45;10.20;;;9.07;;
8526;SDS011;4301;48.362;8.478;2022-09-16T06:02:12;10.57;;;9.30;;
8526;SDS011;4301;48.362;8.478;2022-09-16T06:04:40;10.63;;;9.53;;
8526;SDS011;4301;48.362;8.478;2022-09-16T06:07:07;10.40;;;9.40;;
8526;SDS011;4301;48.362;8.478;2022-09-16T06:09:35;11.20;;;9.57;;
8526;SDS011;4301;48.362;8.478;2022-09-16T06:12:02;10.03;;;9.03;;
8526;SDS011;4301;48.362;8.478;2022-09-16T06:14:30;9.70;;;8.80;;
8526;SDS011;4301;48.362;8.478;2022-09-16T06:16:57;9.50;;;8.50;;
8526;SDS011;4301;48.362;8.478;2022-09-16T06:19:24;10.10;;;8.23;;
8526;SDS011;4301;48.362;8.478;2022-09-16T06:21:52;8.87;;;8.13;;
8526;SDS011;4301;48.362;8.478;2022-09-16T06:24:19;9.63;;;8.73;;
8526;SDS011;4301;48.362;8.478;2022-09-16T06:26:48;8.63;;;7.77;;
8526;SDS011;4301;48.362;8.478;2022-09-16T06:29:15;8.90;;;8.00;;
8526;SDS011;4301;48.362;8.478;2022-09-16T06:31:43;9.73;;;8.70;;
8526;SDS011;4301;48.362;8.478;2022-09-16T06:34:12;8.93;;;8.03;;
8526;SDS011;4301;48.362;8.478;2022-09-16T06:36:42;9.77;;;8.43;;
8526;SDS011;4301;48.362;8.478;2022-09-16T06:39:10;9.73;;;8.73;;
8526;SDS011;4301;48.362;8.478;2022-09-16T06:41:38;11.27;;;8.13;;
8526;SDS011;4301;48.362;8.478;2022-09-16T06:44:07;9.17;;;8.27;;
8526;SDS011;4301;48.362;8.478;2022-09-16T06:46:34;8.60;;;7.80;;
8526;SDS011;4301;48.362;8.478;2022-09-16T06:49:02;9.40;;;8.50;;
8526;SDS011;4301;48.362;8.478;2022-09-16T06:51:30;9.50;;;8.60;;
8526;SDS011;4301;48.362;8.478;2022-09-16T06:53:58;9.20;;;8.20;;
8526;SDS011;4301;48.362;8.478;2022-09-16T06:56:27;8.67;;;7.87;;
8526;SDS011;4301;48.362;8.478;2022-09-16T06:58:54;9.50;;;8.43;;
8526;SDS011;4301;48.362;8.478;2022-09-16T07:01:24;10.50;;;8.53;;
8526;SDS011;4301;48.362;8.478;2022-09-16T07:03:52;8.27;;;7.27;;
8526;SDS011;4301;48.362;8.478;2022-09-16T07:06:22;9.07;;;8.23;;
8526;SDS011;4301;48.362;8.478;2022-09-16T07:08:52;10.47;;;8.20;;
8526;SDS011;4301;48.362;8.478;2022-09-16T07:11:20;9.20;;;8.30;;
8526;SDS011;4301;48.362;8.478;2022-09-16T07:13:49;9.07;;;8.17;;
8526;SDS011;4301;48.362;8.478;2022-09-16T07:16:17;8.93;;;8.10;;
8526;SDS011;4301;48.362;8.478;2022-09-16T07:18:50;9.00;;;8.10;;
8526;SDS011;4301;48.362;8.478;2022-09-16T07:21:19;10.40;;;7.93;;
8526;SDS011;4301;48.362;8.478;2022-09-16T07:23:49;9.07;;;8.10;;
8526;SDS011;4301;48.362;8.478;2022-09-16T07:26:18;8.07;;;7.20;;
8526;SDS011;4301;48.362;8.478;2022-09-16T07:28:46;8.23;;;7.53;;
8526;SDS011;4301;48.362;8.478;2022-09-16T07:31:15;7.27;;;6.60;;
8526;SDS011;4301;48.362;8.478;2022-09-16T07:33:44;6.60;;;6.07;;
8526;SDS011;4301;48.362;8.478;2022-09-16T07:36:15;6.70;;;6.10;;
8526;SDS011;4301;48.362;8.478;2022-09-16T07:38:44;6.33;;;5.73;;
8526;SDS011;4301;48.362;8.478;2022-09-16T07:41:12;6.30;;;5.80;;
8526;SDS011;4301;48.362;8.478;2022-09-16T07:43:40;6.57;;;5.93;;
8526;SDS011;4301;48.362;8.478;2022-09-16T07:46:08;8.30;;;5.97;;
8526;SDS011;4301;48.362;8.478;2022-09-16T07:48:37;5.13;;;4.67;;
8526;SDS011;4301;48.362;8.478;2022-09-16T07:51:07;6.33;;;4.60;;
8526;SDS011;4301;48.362;8.478;2022-09-16T07:53:36;5.10;;;4.63;;
8526;SDS011;4301;48.362;8.478;2022-09-16T07:56:04;4.70;;;4.30;;
8526;SDS011;4301;48.362;8.478;2022-09-16T07:58:33;5.90;;;4.90;;
8526;SDS011;4301;48.362;8.478;2022-09-16T08:01:00;5.43;;;4.93;;
8526;SDS011;4301;48.362;8.478;2022-09-16T08:03:28;5.03;;;4.57;;
8526;SDS011;4301;48.362;8.478;2022-09-16T08:05:58;4.67;;;4.27;;
8526;SDS011;4301;48.362;8.478;2022-09-16T08:08:27;4.27;;;3.87;;
8526;SDS011;4301;48.362;8.478;2022-09-16T08:10:55;5.50;;;5.00;;
8526;SDS011;4301;48.362;8.478;2022-09-16T08:13:23;4.33;;;3.93;;
8526;SDS011;4301;48.362;8.478;2022-09-16T08:15:51;4.40;;;4.00;;
8526;SDS011;4301;48.362;8.478;2022-09-16T08:18:19;3.90;;;3.60;;
8526;SDS011;4301;48.362;8.478;2022-09-16T08:20:47;4.73;;;4.17;;
8526;SDS011;4301;48.362;8.478;2022-09-16T08:23:14;3.90;;;3.63;;
8526;SDS011;4301;48.362;8.478;2022-09-16T08:25:43;4.37;;;3.63;;
8526;SDS011;4301;48.362;8.478;2022-09-16T08:28:11;5.30;;;3.40;;
8526;SDS011;4301;48.362;8.478;2022-09-16T08:30:39;2.90;;;2.70;;
8526;SDS011;4301;48.362;8.478;2022-09-16T08:33:06;3.40;;;3.13;;
8526;SDS011;4301;48.362;8.478;2022-09-16T08:35:34;3.03;;;2.83;;
8526;SDS011;4301;48.362;8.478;2022-09-16T08:38:01;3.20;;;3.00;;
8526;SDS011;4301;48.362;8.478;2022-09-16T08:40:30;3.20;;;3.00;;
8526;SDS011;4301;48.362;8.478;2022-09-16T08:43:03;2.60;;;2.40;;
8526;SDS011;4301;48.362;8.478;2022-09-16T08:45:39;3.50;;;3.23;;
8526;SDS011;4301;48.362;8.478;2022-09-16T08:48:21;3.13;;;2.93;;
8526;SDS011;4301;48.362;8.478;2022-09-16T08:50:56;2.83;;;2.63;;
8526;SDS011;4301;48.362;8.478;2022-09-16T08:53:28;2.80;;;2.60;;
8526;SDS011;4301;48.362;8.478;2022-09-16T08:56:02;3.23;;;3.03;;
8526;SDS011;4301;48.362;8.478;2022-09-16T08:58:34;3.20;;;2.90;;
8526;SDS011;4301;48.362;8.478;2022-09-16T09:01:10;2.50;;;2.40;;
8526;SDS011;4301;48.362;8.478;2022-09-16T09:03:43;3.17;;;2.50;;
8526;SDS011;4301;48.362;8.478;2022-09-16T09:06:13;8.67;;;2.80;;
8526;SDS011;4301;48.362;8.478;2022-09-16T09:08:51;2.73;;;2.63;;
8526;SDS011;4301;48.362;8.478;2022-09-16T09:11:25;4.60;;;3.00;;
8526;SDS011;4301;48.362;8.478;2022-09-16T09:14:04;3.33;;;3.13;;
8526;SDS011;4301;48.362;8.478;2022-09-16T09:16:45;2.83;;;2.63;;
8526;SDS011;4301;48.362;8.478;2022-09-16T09:19:22;3.13;;;2.93;;
8526;SDS011;4301;48.362;8.478;2022-09-16T09:22:03;3.10;;;2.90;;
8526;SDS011;4301;48.362;8.478;2022-09-16T09:24:45;3.10;;;2.90;;
8526;SDS011;4301;48.362;8.478;2022-09-16T09:27:25;2.90;;;2.70;;
8526;SDS011;4301;48.362;8.478;2022-09-16T09:30:02;3.10;;;2.90;;
8526;SDS011;4301;48.362;8.478;2022-09-16T09:32:44;3.23;;;2.97;;
8526;SDS011;4301;48.362;8.478;2022-09-16T09:35:25;2.47;;;2.37;;
8526;SDS011;4301;48.362;8.478;2022-09-16T09:38:12;2.50;;;2.40;;
8526;SDS011;4301;48.362;8.478;2022-09-16T09:41:19;2.27;;;2.17;;
8526;SDS011;4301;48.362;8.478;2022-09-16T09:43:52;2.70;;;2.60;;
8526;SDS011;4301;48.362;8.478;2022-09-16T09:46:26;3.30;;;2.70;;
8526;SDS011;4301;48.362;8.478;2022-09-16T09:48:59;3.13;;;2.93;;
8526;SDS011;4301;48.362;8.478;2022-09-16T09:51:34;3.13;;;2.83;;
8526;SDS011;4301;48.362;8.478;2022-09-16T09:54:05;4.60;;;3.10;;
8526;SDS011;4301;48.362;8.478;2022-09-16T09:56:48;2.60;;;2.50;;
8526;SDS011;4301;48.362;8.478;2022-09-16T09:59:23;5.03;;;1.70;;
8526;SDS011;4301;48.362;8.478;2022-09-16T10:01:54;2.30;;;2.10;;
8526;SDS011;4301;48.362;8.478;2022-09-16T10:04:22;2.13;;;1.93;;
8526;SDS011;4301;48.362;8.478;2022-09-16T10:06:50;1.63;;;1.50;;
8526;SDS011;4301;48.362;8.478;2022-09-16T10:09:21;2.50;;;1.60;;
8526;SDS011;4301;48.362;8.478;2022-09-16T10:11:49;1.83;;;1.73;;
8526;SDS011;4301;48.362;8.478;2022-09-16T10:14:23;1.90;;;1.80;;
8526;SDS011;4301;48.362;8.478;2022-09-16T10:16:52;2.10;;;2.00;;
8526;SDS011;4301;48.362;8.478;2022-09-16T10:19:22;2.20;;;2.00;;
8526;SDS011;4301;48.362;8.478;2022-09-16T10:21:51;2.30;;;2.10;;
8526;SDS011;4301;48.362;8.478;2022-09-16T10:24:29;2.77;;;2.40;;
8526;SDS011;4301;48.362;8.478;2022-09-16T10:26:58;2.80;;;2.40;;
8526;SDS011;4301;48.362;8.478;2022-09-16T10:29:27;3.80;;;2.87;;
8526;SDS011;4301;48.362;8.478;2022-09-16T10:31:54;2.87;;;2.40;;
8526;SDS011;4301;48.362;8.478;2022-09-16T10:34:27;5.97;;;2.60;;
8526;SDS011;4301;48.362;8.478;2022-09-16T10:37:01;2.83;;;2.20;;
8526;SDS011;4301;48.362;8.478;2022-09-16T10:39:41;2.90;;;2.70;;
8526;SDS011;4301;48.362;8.478;2022-09-16T10:42:14;3.50;;;2.60;;
8526;SDS011;4301;48.362;8.478;2022-09-16T10:44:43;3.03;;;2.80;;
8526;SDS011;4301;48.362;8.478;2022-09-16T10:47:15;3.00;;;2.70;;
8526;SDS011;4301;48.362;8.478;2022-09-16T10:49:48;4.03;;;2.67;;
8526;SDS011;4301;48.362;8.478;2022-09-16T10:52:17;2.90;;;2.70;;
8526;SDS011;4301;48.362;8.478;2022-09-16T10:54:47;3.93;;;2.30;;
8526;SDS011;4301;48.362;8.478;2022-09-16T10:57:22;3.17;;;2.60;;
8526;SDS011;4301;48.362;8.478;2022-09-16T10:59:55;2.73;;;2.43;;
8526;SDS011;4301;48.362;8.478;2022-09-16T11:02:25;2.87;;;2.63;;
8526;SDS011;4301;48.362;8.478;2022-09-16T11:05:06;2.87;;;2.57;;
8526;SDS011;4301;48.362;8.478;2022-09-16T11:07:44;2.77;;;2.50;;
8526;SDS011;4301;48.362;8.478;2022-09-16T11:10:19;4.33;;;2.80;;
8526;SDS011;4301;48.362;8.478;2022-09-16T11:12:57;4.97;;;2.93;;
8526;SDS011;4301;48.362;8.478;2022-09-16T11:15:41;4.87;;;2.80;;
8526;SDS011;4301;48.362;8.478;2022-09-16T11:18:20;3.30;;;3.00;;
8526;SDS011;4301;48.362;8.478;2022-09-16T11:21:00;4.33;;;3.20;;
8526;SDS011;4301;48.362;8.478;2022-09-16T11:23:52;2.90;;;2.60;;
8526;SDS011;4301;48.362;8.478;2022-09-16T11:26:29;3.87;;;2.60;;
8526;SDS011;4301;48.362;8.478;2022-09-16T11:29:08;3.27;;;2.73;;
8526;SDS011;4301;48.362;8.478;2022-09-16T11:31:49;3.50;;;2.53;;
8526;SDS011;4301;48.362;8.478;2022-09-16T11:34:27;3.93;;;2.73;;
8526;SDS011;4301;48.362;8.478;2022-09-16T11:37:10;5.33;;;2.83;;
8526;SDS011;4301;48.362;8.478;2022-09-16T11:39:48;4.00;;;2.93;;
8526;SDS011;4301;48.362;8.478;2022-09-16T11:42:26;6.47;;;3.07;;
8526;SDS011;4301;48.362;8.478;2022-09-16T11:45:01;4.03;;;3.00;;
8526;SDS011;4301;48.362;8.478;2022-09-16T11:47:40;5.73;;;2.70;;
8526;SDS011;4301;48.362;8.478;2022-09-16T11:50:21;5.60;;;3.00;;
8526;SDS011;4301;48.362;8.478;2022-09-16T11:53:08;5.03;;;3.20;;
8526;SDS011;4301;48.362;8.478;2022-09-16T11:55:51;4.47;;;3.03;;
8526;SDS011;4301;48.362;8.478;2022-09-16T11:58:25;5.27;;;3.07;;
8526;SDS011;4301;48.362;8.478;2022-09-16T12:00:58;3.30;;;3.00;;
8526;SDS011;4301;48.362;8.478;2022-09-16T12:03:31;3.67;;;2.80;;
8526;SDS011;4301;48.362;8.478;2022-09-16T12:06:06;4.03;;;2.90;;
8526;SDS011;4301;48.362;8.478;2022-09-16T12:08:42;3.00;;;2.67;;
8526;SDS011;4301;48.362;8.478;2022-09-16T12:11:18;3.53;;;3.00;;
8526;SDS011;4301;48.362;8.478;2022-09-16T12:13:52;3.10;;;2.80;;
8526;SDS011;4301;48.362;8.478;2022-09-16T12:16:26;5.37;;;2.90;;
8526;SDS011;4301;48.362;8.478;2022-09-16T12:19:01;5.83;;;2.63;;
8526;SDS011;4301;48.362;8.478;2022-09-16T12:21:34;4.00;;;2.53;;
8526;SDS011;4301;48.362;8.478;2022-09-16T12:24:12;4.27;;;2.53;;
8526;SDS011;4301;48.362;8.478;2022-09-16T12:26:47;2.90;;;2.37;;
8526;SDS011;4301;48.362;8.478;2022-09-16T12:29:18;3.53;;;2.97;;
8526;SDS011;4301;48.362;8.478;2022-09-16T12:31:50;4.77;;;2.80;;
8526;SDS011;4301;48.362;8.478;2022-09-16T12:34:22;4.63;;;2.90;;
8526;SDS011;4301;48.362;8.478;2022-09-16T12:36:53;6.60;;;3.70;;
8526;SDS011;4301;48.362;8.478;2022-09-16T12:39:27;7.03;;;3.50;;
8526;SDS011;4301;48.362;8.478;2022-09-16T12:41:59;4.23;;;3.20;;
8526;SDS011;4301;48.362;8.478;2022-09-16T12:44:56;3.20;;;2.90;;
8526;SDS011;4301;48.362;8.478;2022-09-16T12:50:38;5.00;;;3.33;;
8526;SDS011;4301;48.362;8.478;2022-09-16T12:59:38;3.50;;;2.60;;
8526;SDS011;4301;48.362;8.478;2022-09-16T13:02:21;2.97;;;2.47;;
8526;SDS011;4301;48.362;8.478;2022-09-16T13:04:52;3.03;;;2.30;;
8526;SDS011;4301;48.362;8.478;2022-09-16T13:07:23;3.60;;;2.70;;
8526;SDS011;4301;48.362;8.478;2022-09-16T13:09:58;4.00;;;2.93;;
8526;SDS011;4301;48.362;8.478;2022-09-16T13:12:29;3.60;;;2.53;;
8526;SDS011;4301;48.362;8.478;2022-09-16T13:14:58;2.50;;;2.10;;
8526;SDS011;4301;48.362;8.478;2022-09-16T13:17:27;2.57;;;2.23;;
8526;SDS011;4301;48.362;8.478;2022-09-16T13:19:58;4.27;;;2.10;;
8526;SDS011;4301;48.362;8.478;2022-09-16T13:22:34;2.17;;;1.97;;
8526;SDS011;4301;48.362;8.478;2022-09-16T13:25:09;2.90;;;1.80;;
8526;SDS011;4301;48.362;8.478;2022-09-16T13:27:53;1.83;;;1.67;;
8526;SDS011;4301;48.362;8.478;2022-09-16T13:30:30;2.03;;;1.80;;
8526;SDS011;4301;48.362;8.478;2022-09-16T13:38:56;1.85;;;1.75;;
8526;SDS011;4301;48.362;8.478;2022-09-16T13:41:28;4.80;;;2.00;;
8526;SDS011;4301;48.362;8.478;2022-09-16T13:43:59;2.10;;;1.90;;
8526;SDS011;4301;48.362;8.478;2022-09-16T13:46:29;3.38;;;1.90;;
8526;SDS011;4301;48.362;8.478;2022-09-16T13:49:03;3.17;;;2.10;;
8526;SDS011;4301;48.362;8.478;2022-09-16T13:51:44;5.33;;;2.00;;
8526;SDS011;4301;48.362;8.478;2022-09-16T13:54:21;3.03;;;1.90;;
8526;SDS011;4301;48.362;8.478;2022-09-16T14:00:09;4.27;;;2.23;;
8526;SDS011;4301;48.362;8.478;2022-09-16T14:02:58;4.27;;;2.10;;
8526;SDS011;4301;48.362;8.478;2022-09-16T14:06:10;2.23;;;2.03;;
8526;SDS011;4301;48.362;8.478;2022-09-16T14:08:53;3.40;;;1.97;;
8526;SDS011;4301;48.362;8.478;2022-09-16T14:11:29;3.90;;;2.03;;
8526;SDS011;4301;48.362;8.478;2022-09-16T14:14:02;2.60;;;2.10;;
8526;SDS011;4301;48.362;8.478;2022-09-16T14:16:34;3.37;;;2.00;;
8526;SDS011;4301;48.362;8.478;2022-09-16T14:19:07;5.60;;;2.30;;
8526;SDS011;4301;48.362;8.478;2022-09-16T14:21:44;3.93;;;2.20;;
8526;SDS011;4301;48.362;8.478;2022-09-16T14:24:14;7.03;;;2.27;;
8526;SDS011;4301;48.362;8.478;2022-09-16T14:26:49;6.10;;;2.00;;
8526;SDS011;4301;48.362;8.478;2022-09-16T14:29:18;5.37;;;2.00;;
8526;SDS011;4301;48.362;8.478;2022-09-16T14:31:47;3.07;;;1.80;;
8526;SDS011;4301;48.362;8.478;2022-09-16T14:34:19;2.40;;;2.00;;
8526;SDS011;4301;48.362;8.478;2022-09-16T14:36:51;2.37;;;1.87;;
8526;SDS011;4301;48.362;8.478;2022-09-16T14:39:19;2.17;;;1.87;;
8526;SDS011;4301;48.362;8.478;2022-09-16T14:41:50;2.53;;;1.87;;
8526;SDS011;4301;48.362;8.478;2022-09-16T14:44:20;2.43;;;2.03;;
8526;SDS011;4301;48.362;8.478;2022-09-16T14:46:53;5.27;;;2.00;;
8526;SDS011;4301;48.362;8.478;2022-09-16T14:49:23;2.90;;;1.87;;
8526;SDS011;4301;48.362;8.478;2022-09-16T14:51:53;3.63;;;2.33;;
8526;SDS011;4301;48.362;8.478;2022-09-16T14:54:22;2.50;;;2.03;;
8526;SDS011;4301;48.362;8.478;2022-09-16T14:56:55;5.00;;;2.10;;
8526;SDS011;4301;48.362;8.478;2022-09-16T14:59:24;3.10;;;2.20;;
8526;SDS011;4301;48.362;8.478;2022-09-16T15:01:55;4.13;;;2.30;;
8526;SDS011;4301;48.362;8.478;2022-09-16T15:04:27;4.27;;;2.03;;
8526;SDS011;4301;48.362;8.478;2022-09-16T15:07:00;6.23;;;2.47;;
8526;SDS011;4301;48.362;8.478;2022-09-16T15:09:36;4.67;;;2.37;;
8526;SDS011;4301;48.362;8.478;2022-09-16T15:12:16;2.93;;;2.40;;
8526;SDS011;4301;48.362;8.478;2022-09-16T15:14:50;4.40;;;2.20;;
8526;SDS011;4301;48.362;8.478;2022-09-16T15:17:20;3.83;;;2.20;;
8526;SDS011;4301;48.362;8.478;2022-09-16T15:19:52;4.43;;;2.23;;
8526;SDS011;4301;48.362;8.478;2022-09-16T15:22:22;5.07;;;2.43;;
8526;SDS011;4301;48.362;8.478;2022-09-16T15:24:50;3.47;;;2.17;;
8526;SDS011;4301;48.362;8.478;2022-09-16T15:27:20;4.03;;;1.80;;
8526;SDS011;4301;48.362;8.478;2022-09-16T15:29:51;4.03;;;1.90;;
8526;SDS011;4301;48.362;8.478;2022-09-16T15:32:23;6.97;;;2.00;;
8526;SDS011;4301;48.362;8.478;2022-09-16T15:37:51;2.67;;;1.87;;
8526;SDS011;4301;48.362;8.478;2022-09-16T15:40:21;4.80;;;1.93;;
8526;SDS011;4301;48.362;8.478;2022-09-16T15:43:03;2.17;;;1.57;;
8526;SDS011;4301;48.362;8.478;2022-09-16T15:45:38;3.67;;;1.93;;
8526;SDS011;4301;48.362;8.478;2022-09-16T15:48:12;12.00;;;3.03;;
8526;SDS011;4301;48.362;8.478;2022-09-16T15:50:43;9.20;;;2.27;;
8526;SDS011;4301;48.362;8.478;2022-09-16T15:53:13;2.00;;;1.80;;
8526;SDS011;4301;48.362;8.478;2022-09-16T15:55:50;3.90;;;1.83;;
8526;SDS011;4301;48.362;8.478;2022-09-16T15:58:23;2.43;;;1.97;;
8526;SDS011;4301;48.362;8.478;2022-09-16T16:01:04;2.43;;;1.80;;
8526;SDS011;4301;48.362;8.478;2022-09-16T16:03:44;6.90;;;3.53;;